createdAt,value
2023-02-13T00:00:48.352Z,16.70
2023-02-13T00:03:17.590Z,16.30
2023-02-13T00:05:45.695Z,17.00
2023-02-13T00:08:13.562Z,16.87
2023-02-13T00:10:41.481Z,17.43
2023-02-13T00:13:09.368Z,17.40
2023-02-13T00:15:37.286Z,16.90
2023-02-13T00:18:05.710Z,16.80
2023-02-13T00:20:34.953Z,16.90
2023-02-13T00:23:03.046Z,17.07
2023-02-13T00:25:30.957Z,17.47
2023-02-13T00:27:58.829Z,17.87
2023-02-13T00:30:26.742Z,17.70
2023-02-13T00:32:54.556Z,17.03
2023-02-13T00:35:25.193Z,16.60
2023-02-13T00:37:55.122Z,17.33
2023-02-13T00:40:25.676Z,17.07
2023-02-13T00:42:53.615Z,17.73
2023-02-13T00:45:21.482Z,16.73
2023-02-13T00:47:49.384Z,16.90
2023-02-13T00:50:17.429Z,17.30
2023-02-13T00:52:45.438Z,16.77
2023-02-13T00:55:15.344Z,16.57
2023-02-13T00:57:43.509Z,17.00
2023-02-13T01:00:14.148Z,16.60
2023-02-13T01:02:42.821Z,17.03
2023-02-13T01:05:10.659Z,16.53
2023-02-13T01:07:38.556Z,15.90
2023-02-13T01:10:08.093Z,15.10
2023-02-13T01:12:37.373Z,15.53
2023-02-13T01:15:08.664Z,15.50
2023-02-13T01:17:36.536Z,15.50
2023-02-13T01:20:04.518Z,14.83
2023-02-13T01:22:32.433Z,15.53
2023-02-13T01:25:00.241Z,15.20
2023-02-13T01:27:32.386Z,14.60
2023-02-13T01:30:01.703Z,14.90
2023-02-13T01:32:30.773Z,15.13
2023-02-13T01:34:58.675Z,14.73
2023-02-13T01:37:26.546Z,14.70
2023-02-13T01:39:56.288Z,13.70
2023-02-13T01:42:27.590Z,14.57
2023-02-13T01:44:57.152Z,14.70
2023-02-13T01:47:30.448Z,14.60
2023-02-13T01:50:07.123Z,14.97
2023-02-13T01:52:36.871Z,14.63
2023-02-13T01:55:06.026Z,16.33
2023-02-13T01:57:35.151Z,17.20
2023-02-13T02:00:07.495Z,15.67
2023-02-13T02:02:51.631Z,16.83
2023-02-13T02:05:25.088Z,16.00
2023-02-13T02:07:54.106Z,16.53
2023-02-13T02:10:24.764Z,16.60
2023-02-13T02:12:59.604Z,15.93
2023-02-13T02:15:29.660Z,16.73
2023-02-13T02:17:58.939Z,16.77
2023-02-13T02:20:38.887Z,15.57
2023-02-13T02:23:53.654Z,15.63
2023-02-13T02:26:49.492Z,16.43
2023-02-13T02:29:44.040Z,16.40
2023-02-13T02:32:36.254Z,16.73
2023-02-13T02:35:18.999Z,16.07
2023-02-13T02:38:00.238Z,16.30
2023-02-13T02:40:37.929Z,16.83
2023-02-13T02:43:22.889Z,16.70
2023-02-13T02:45:57.576Z,17.07
2023-02-13T02:48:50.418Z,16.67
2023-02-13T02:51:25.632Z,15.90
2023-02-13T02:54:24.404Z,16.23
2023-02-13T02:56:55.396Z,16.10
2023-02-13T02:59:46.653Z,17.07
2023-02-13T03:02:33.577Z,16.50
2023-02-13T03:05:22.153Z,15.97
2023-02-13T03:07:50.330Z,17.70
2023-02-13T03:10:46.009Z,17.37
2023-02-13T03:13:21.758Z,17.23
2023-02-13T03:16:09.225Z,17.53
2023-02-13T03:18:57.554Z,17.87
2023-02-13T03:21:48.804Z,17.43
2023-02-13T03:24:26.931Z,17.67
2023-02-13T03:27:02.070Z,17.83
2023-02-13T03:30:01.104Z,18.80
2023-02-13T03:32:37.030Z,17.07
2023-02-13T03:35:34.314Z,17.67
2023-02-13T03:38:11.644Z,17.20
2023-02-13T03:41:02.317Z,16.67
2023-02-13T03:43:33.772Z,17.20
2023-02-13T03:46:03.721Z,16.50
2023-02-13T03:48:52.806Z,16.93
2023-02-13T03:51:27.483Z,16.77
2023-02-13T03:54:00.583Z,16.87
2023-02-13T03:56:50.853Z,16.37
2023-02-13T03:59:23.403Z,15.40
2023-02-13T04:01:57.591Z,14.70
2023-02-13T04:04:32.568Z,15.53
2023-02-13T04:07:03.880Z,15.33
2023-02-13T04:09:35.730Z,14.17
2023-02-13T04:12:10.821Z,13.83
2023-02-13T04:14:44.063Z,13.10
2023-02-13T04:17:17.817Z,12.87
2023-02-13T04:19:45.897Z,13.00
2023-02-13T04:22:14.073Z,12.73
2023-02-13T04:24:43.344Z,12.80
2023-02-13T04:27:13.958Z,12.13
2023-02-13T04:29:42.009Z,10.93
2023-02-13T04:32:11.739Z,10.97
2023-02-13T04:34:39.905Z,11.03
2023-02-13T04:37:07.771Z,11.03
2023-02-13T04:39:35.743Z,10.27
2023-02-13T04:42:05.148Z,10.23
2023-02-13T04:44:33.036Z,9.13
2023-02-13T04:47:00.965Z,9.27
2023-02-13T04:49:28.851Z,9.77
2023-02-13T04:51:56.671Z,8.33
2023-02-13T04:54:24.557Z,8.93
2023-02-13T04:56:52.373Z,8.80
2023-02-13T04:59:21.618Z,8.40
2023-02-13T05:01:49.526Z,8.23
2023-02-13T05:04:17.582Z,7.60
2023-02-13T05:06:46.335Z,7.90
2023-02-13T05:09:14.215Z,7.83
2023-02-13T05:11:42.089Z,7.77
2023-02-13T05:14:11.186Z,6.63
2023-02-13T05:16:40.389Z,7.33
2023-02-13T05:19:08.284Z,6.73
2023-02-13T05:21:53.773Z,6.67
2023-02-13T05:24:21.664Z,6.50
2023-02-13T05:26:49.557Z,6.60
2023-02-13T05:29:20.445Z,6.50
2023-02-13T05:31:51.108Z,6.70
2023-02-13T05:34:19.208Z,6.80
2023-02-13T05:36:47.024Z,6.10
2023-02-13T05:39:15.192Z,6.53
2023-02-13T05:41:43.690Z,6.13
2023-02-13T05:44:12.190Z,6.53
2023-02-13T05:46:41.656Z,6.10
2023-02-13T05:49:13.030Z,6.67
2023-02-13T05:51:40.970Z,6.40
2023-02-13T05:54:09.210Z,7.40
2023-02-13T05:56:37.071Z,7.03
2023-02-13T05:59:05.071Z,7.37
2023-02-13T06:01:33.078Z,7.53
2023-02-13T06:04:03.676Z,6.97
2023-02-13T06:06:33.205Z,7.50
2023-02-13T06:09:01.065Z,7.60
2023-02-13T06:11:29.174Z,7.40
2023-02-13T06:13:57.076Z,8.00
2023-02-13T06:16:25.076Z,7.63
2023-02-13T06:18:52.930Z,7.70
2023-02-13T06:21:22.504Z,7.37
2023-02-13T06:23:52.186Z,7.33
2023-02-13T06:26:20.208Z,8.03
2023-02-13T06:28:48.020Z,7.60
2023-02-13T06:31:15.976Z,8.17
2023-02-13T06:33:43.887Z,8.50
2023-02-13T06:36:11.748Z,7.90
2023-02-13T06:38:39.600Z,8.60
2023-02-13T06:41:09.306Z,8.53
2023-02-13T06:43:39.825Z,8.03
2023-02-13T06:46:09.039Z,8.27
2023-02-13T06:48:37.363Z,7.73
2023-02-13T06:51:05.731Z,8.47
2023-02-13T06:53:33.809Z,10.27
2023-02-13T06:56:06.096Z,10.10
2023-02-13T06:58:35.666Z,9.93
2023-02-13T07:01:03.652Z,10.07
2023-02-13T07:03:31.492Z,10.03
2023-02-13T07:05:59.403Z,10.30
2023-02-13T07:08:27.394Z,10.63
2023-02-13T07:10:55.755Z,10.30
2023-02-13T07:13:23.718Z,10.37
2023-02-13T07:15:53.073Z,9.73
2023-02-13T07:18:20.874Z,10.33
2023-02-13T07:20:48.764Z,10.37
2023-02-13T07:23:16.626Z,10.50
2023-02-13T07:25:44.502Z,11.20
2023-02-13T07:28:13.342Z,10.87
2023-02-13T07:30:41.291Z,11.37
2023-02-13T07:33:12.741Z,10.87
2023-02-13T07:35:46.823Z,10.50
2023-02-13T07:38:14.787Z,10.30
2023-02-13T07:40:42.613Z,10.53
2023-02-13T07:43:10.714Z,10.90
2023-02-13T07:45:38.492Z,10.03
2023-02-13T07:48:06.618Z,10.63
2023-02-13T07:50:35.787Z,10.80
2023-02-13T07:53:04.021Z,11.13
2023-02-13T07:55:32.606Z,11.80
2023-02-13T07:58:01.730Z,11.67
2023-02-13T08:00:29.558Z,13.50
2023-02-13T08:03:00.282Z,14.07
2023-02-13T08:05:28.674Z,13.80
2023-02-13T08:07:57.960Z,13.57
2023-02-13T08:10:44.198Z,12.97
2023-02-13T08:13:15.038Z,14.40
2023-02-13T08:15:44.382Z,14.63
2023-02-13T08:18:12.295Z,16.20
2023-02-13T08:20:40.340Z,16.17
2023-02-13T08:23:12.130Z,19.53
2023-02-13T08:25:40.518Z,16.27
2023-02-13T08:28:08.517Z,15.00
2023-02-13T08:30:36.422Z,15.83
2023-02-13T08:33:04.311Z,15.57
2023-02-13T08:35:32.194Z,17.90
2023-02-13T08:38:03.757Z,16.33
2023-02-13T08:40:33.354Z,15.87
2023-02-13T08:43:02.187Z,16.63
2023-02-13T08:45:30.655Z,14.37
2023-02-13T08:47:59.222Z,13.07
2023-02-13T08:50:28.662Z,12.70
2023-02-13T08:52:56.793Z,12.23
2023-02-13T08:55:24.580Z,12.87
2023-02-13T08:57:53.778Z,12.70
2023-02-13T09:00:22.505Z,13.23
2023-02-13T09:02:50.467Z,11.67
2023-02-13T09:05:18.352Z,12.33
2023-02-13T09:07:46.305Z,11.20
2023-02-13T09:10:14.160Z,11.23
2023-02-13T09:12:42.100Z,11.53
2023-02-13T09:15:11.923Z,10.97
2023-02-13T09:17:39.939Z,10.57
2023-02-13T09:20:08.746Z,11.17
2023-02-13T09:22:36.739Z,12.80
2023-02-13T09:25:04.837Z,13.23
2023-02-13T09:27:33.531Z,11.77
2023-02-13T09:30:01.453Z,13.50
2023-02-13T09:32:31.659Z,12.80
2023-02-13T09:35:00.413Z,12.57
2023-02-13T09:37:28.512Z,12.97
2023-02-13T09:39:56.453Z,12.00
2023-02-13T09:42:28.736Z,12.50
2023-02-13T09:45:00.492Z,12.20
2023-02-13T09:47:32.924Z,11.73
2023-02-13T09:50:04.824Z,11.80
2023-02-13T09:52:36.346Z,12.63
2023-02-13T09:55:07.880Z,11.90
2023-02-13T09:57:43.084Z,12.07
2023-02-13T10:00:16.268Z,12.20
2023-02-13T10:03:14.291Z,12.30
2023-02-13T10:05:54.307Z,12.20
2023-02-13T10:08:33.890Z,12.00
2023-02-13T10:11:14.601Z,13.17
2023-02-13T10:14:06.379Z,11.93
2023-02-13T10:16:39.028Z,12.97
2023-02-13T10:19:17.110Z,13.03
2023-02-13T10:21:50.830Z,13.53
2023-02-13T10:24:28.371Z,12.50
2023-02-13T10:26:58.727Z,13.03
2023-02-13T10:29:55.521Z,12.27
2023-02-13T10:32:30.294Z,12.67
2023-02-13T10:35:03.284Z,13.00
2023-02-13T10:37:31.646Z,12.13
2023-02-13T10:39:59.465Z,13.47
2023-02-13T10:42:39.299Z,12.97
2023-02-13T10:45:24.098Z,12.43
2023-02-13T10:48:07.994Z,12.90
2023-02-13T10:50:44.120Z,11.90
2023-02-13T10:53:20.877Z,13.17
2023-02-13T10:56:01.767Z,13.20
2023-02-13T10:58:49.750Z,13.27
2023-02-13T11:01:25.023Z,12.80
2023-02-13T11:04:06.456Z,13.47
2023-02-13T11:06:37.725Z,12.33
2023-02-13T11:09:08.409Z,12.53
2023-02-13T11:11:38.034Z,12.37
2023-02-13T11:14:12.563Z,12.63
2023-02-13T11:16:59.256Z,12.13
2023-02-13T11:19:33.240Z,13.30
2023-02-13T11:22:05.608Z,12.03
2023-02-13T11:24:33.759Z,12.47
2023-02-13T11:27:08.634Z,12.80
2023-02-13T11:29:38.106Z,13.43
2023-02-13T11:32:18.728Z,11.87
2023-02-13T11:34:47.823Z,11.97
2023-02-13T11:37:21.712Z,12.30
2023-02-13T11:39:51.748Z,13.07
2023-02-13T11:42:30.137Z,11.83
2023-02-13T11:45:02.234Z,11.83
2023-02-13T11:47:39.852Z,11.50
2023-02-13T11:50:24.771Z,12.83
2023-02-13T11:52:58.485Z,12.20
2023-02-13T11:55:31.789Z,11.53
2023-02-13T11:58:01.626Z,12.37
2023-02-13T12:00:37.649Z,12.17
2023-02-13T12:03:27.151Z,11.60
2023-02-13T12:06:03.962Z,11.47
2023-02-13T12:08:35.437Z,12.27
2023-02-13T12:11:09.556Z,12.63
2023-02-13T12:13:39.870Z,12.93
2023-02-13T12:16:15.243Z,13.37
2023-02-13T12:18:45.831Z,14.07
2023-02-13T12:21:26.945Z,13.03
2023-02-13T12:24:02.822Z,13.10
2023-02-13T12:26:36.248Z,13.07
2023-02-13T12:29:33.634Z,12.93
2023-02-13T12:32:16.449Z,13.00
2023-02-13T12:35:04.872Z,13.03
2023-02-13T12:38:00.009Z,13.33
2023-02-13T12:40:46.668Z,14.27
2023-02-13T12:43:29.314Z,13.97
2023-02-13T12:46:03.664Z,14.03
2023-02-13T12:48:40.133Z,13.50
2023-02-13T12:51:25.253Z,13.80
2023-02-13T12:54:03.951Z,14.20
2023-02-13T12:56:46.627Z,13.90
2023-02-13T12:59:24.292Z,14.37
2023-02-13T13:02:15.452Z,13.80
2023-02-13T13:04:54.100Z,13.93
2023-02-13T13:07:41.312Z,15.53
2023-02-13T13:10:32.754Z,14.37
2023-02-13T13:13:12.018Z,15.23
2023-02-13T13:15:47.265Z,15.07
2023-02-13T13:18:28.767Z,14.80
2023-02-13T13:21:02.943Z,14.30
2023-02-13T13:23:36.858Z,16.57
2023-02-13T13:26:16.720Z,15.83
2023-02-13T13:28:49.813Z,16.07
2023-02-13T13:31:18.148Z,16.43
2023-02-13T13:33:48.106Z,16.07
2023-02-13T13:36:24.843Z,15.47
2023-02-13T13:39:03.765Z,16.40
2023-02-13T13:41:39.653Z,15.87
2023-02-13T13:44:36.600Z,15.03
2023-02-13T13:47:10.264Z,15.63
2023-02-13T13:49:45.917Z,15.07
2023-02-13T13:52:23.223Z,15.87
2023-02-13T13:54:53.469Z,15.67
2023-02-13T13:57:22.381Z,15.27
2023-02-13T14:00:23.326Z,16.10
2023-02-13T14:02:53.120Z,15.93
2023-02-13T14:05:30.125Z,16.97
2023-02-13T14:07:59.522Z,17.97
2023-02-13T14:11:07.249Z,17.53
2023-02-13T14:13:37.800Z,16.97
2023-02-13T14:16:10.844Z,16.13
2023-02-13T14:18:44.377Z,15.93
2023-02-13T14:21:13.091Z,17.00
2023-02-13T14:23:53.095Z,16.80
2023-02-13T14:26:39.593Z,15.40
2023-02-13T14:29:28.155Z,16.50
2023-02-13T14:32:03.606Z,16.53
2023-02-13T14:34:36.328Z,16.17
2023-02-13T14:37:20.532Z,17.90
2023-02-13T14:40:28.310Z,16.33
2023-02-13T14:42:59.551Z,16.20
2023-02-13T14:45:32.252Z,16.50
2023-02-13T14:48:07.262Z,15.53
2023-02-13T14:50:45.742Z,15.10
2023-02-13T14:53:22.514Z,15.23
2023-02-13T14:55:57.650Z,15.13
2023-02-13T14:58:29.928Z,16.10
2023-02-13T15:01:03.541Z,16.30
2023-02-13T15:03:39.074Z,14.73
2023-02-13T15:06:25.065Z,14.73
2023-02-13T15:08:54.666Z,14.63
2023-02-13T15:11:44.033Z,15.37
2023-02-13T15:14:23.730Z,14.67
2023-02-13T15:16:56.052Z,13.10
2023-02-13T15:19:26.677Z,14.90
2023-02-13T15:21:58.531Z,14.73
2023-02-13T15:24:27.265Z,15.43
2023-02-13T15:27:01.968Z,15.60
2023-02-13T15:29:44.207Z,16.37
2023-02-13T15:32:20.100Z,14.97
2023-02-13T15:34:49.941Z,14.97
2023-02-13T15:37:22.585Z,14.80
2023-02-13T15:39:50.463Z,15.30
2023-02-13T15:42:18.323Z,15.20
2023-02-13T15:44:48.699Z,16.07
2023-02-13T15:47:21.948Z,15.83
2023-02-13T15:49:51.651Z,15.60
2023-02-13T15:52:23.856Z,15.37
2023-02-13T15:54:54.782Z,16.03
2023-02-13T15:57:24.322Z,15.80
2023-02-13T15:59:53.981Z,15.40
2023-02-13T16:02:24.787Z,15.67
2023-02-13T16:04:56.547Z,17.13
2023-02-13T16:07:24.502Z,15.90
2023-02-13T16:09:52.593Z,16.67
2023-02-13T16:12:23.923Z,18.47
2023-02-13T16:14:55.367Z,15.17
2023-02-13T16:17:29.837Z,15.70
2023-02-13T16:20:02.765Z,16.20
2023-02-13T16:22:34.379Z,15.47
2023-02-13T16:25:14.928Z,15.70
2023-02-13T16:27:46.002Z,15.63
2023-02-13T16:30:34.990Z,16.43
2023-02-13T16:33:21.673Z,15.93
2023-02-13T16:35:54.927Z,15.07
2023-02-13T16:38:32.145Z,15.60
2023-02-13T16:41:02.208Z,17.63
2023-02-13T16:43:38.641Z,16.07
2023-02-13T16:46:31.685Z,16.27
2023-02-13T16:49:22.612Z,15.90
2023-02-13T16:51:58.344Z,17.47
2023-02-13T16:54:30.216Z,17.27
2023-02-13T16:57:00.109Z,16.63
2023-02-13T16:59:32.134Z,17.10
2023-02-13T17:02:18.977Z,16.87
2023-02-13T17:04:49.859Z,17.00
2023-02-13T17:07:22.941Z,16.53
2023-02-13T17:09:54.870Z,17.67
2023-02-13T17:12:23.871Z,16.03
2023-02-13T17:14:52.224Z,16.40
2023-02-13T17:17:22.732Z,17.10
2023-02-13T17:19:51.324Z,16.27
2023-02-13T17:22:26.040Z,16.70
2023-02-13T17:24:53.905Z,17.07
2023-02-13T17:27:22.839Z,17.87
2023-02-13T17:29:50.838Z,16.60
2023-02-13T17:32:20.506Z,17.53
2023-02-13T17:34:48.457Z,20.00
2023-02-13T17:37:23.551Z,20.27
2023-02-13T17:39:52.388Z,17.20
2023-02-13T17:42:24.287Z,16.73
2023-02-13T17:44:52.725Z,17.43
2023-02-13T17:47:21.497Z,17.53
2023-02-13T17:49:49.886Z,17.70
2023-02-13T17:52:21.874Z,17.50
2023-02-13T17:54:50.176Z,18.07
2023-02-13T17:57:19.392Z,17.40
2023-02-13T17:59:48.372Z,17.13
2023-02-13T18:02:18.072Z,18.30
2023-02-13T18:04:46.627Z,17.87
2023-02-13T18:07:16.410Z,17.80
2023-02-13T18:09:46.022Z,18.63
2023-02-13T18:12:15.861Z,18.87
2023-02-13T18:14:44.085Z,19.97
2023-02-13T18:17:12.407Z,19.67
2023-02-13T18:19:40.869Z,19.43
2023-02-13T18:22:10.098Z,18.90
2023-02-13T18:24:40.597Z,21.50
2023-02-13T18:27:11.238Z,18.97
2023-02-13T18:29:39.625Z,17.37
2023-02-13T18:32:10.334Z,19.07
2023-02-13T18:34:39.419Z,17.60
2023-02-13T18:37:08.094Z,16.23
2023-02-13T18:39:36.387Z,18.53
2023-02-13T18:42:04.471Z,20.03
2023-02-13T18:44:33.672Z,18.33
2023-02-13T18:47:01.627Z,18.80
2023-02-13T18:49:29.582Z,18.13
2023-02-13T18:51:57.788Z,18.57
2023-02-13T18:54:25.774Z,17.73
2023-02-13T18:56:53.732Z,17.67
2023-02-13T18:59:22.914Z,16.67
2023-02-13T19:01:52.195Z,18.37
2023-02-13T19:04:20.099Z,16.87
2023-02-13T19:06:47.978Z,17.07
2023-02-13T19:09:15.913Z,17.67
2023-02-13T19:11:44.379Z,15.77
2023-02-13T19:14:14.875Z,16.10
2023-02-13T19:16:43.065Z,16.80
2023-02-13T19:19:12.545Z,16.83
2023-02-13T19:21:41.166Z,17.67
2023-02-13T19:24:10.387Z,18.13
2023-02-13T19:26:38.726Z,18.17
2023-02-13T19:29:06.574Z,18.27
2023-02-13T19:31:35.370Z,17.17
2023-02-13T19:34:05.583Z,18.43
2023-02-13T19:36:34.882Z,16.50
2023-02-13T19:39:04.993Z,17.47
2023-02-13T19:41:33.735Z,17.03
2023-02-13T19:44:01.730Z,17.80
2023-02-13T19:46:31.714Z,17.20
2023-02-13T19:49:00.503Z,17.67
2023-02-13T19:51:30.098Z,19.17
2023-02-13T19:54:00.663Z,17.90
2023-02-13T19:56:29.705Z,17.83
2023-02-13T19:58:58.167Z,17.73
2023-02-13T20:01:28.736Z,18.47
2023-02-13T20:03:56.717Z,17.60
2023-02-13T20:06:27.694Z,17.47
2023-02-13T20:08:58.444Z,17.03
2023-02-13T20:11:27.928Z,17.03
2023-02-13T20:13:57.000Z,17.33
2023-02-13T20:16:25.198Z,17.73
2023-02-13T20:18:53.775Z,17.13
2023-02-13T20:21:22.045Z,17.93
2023-02-13T20:23:52.302Z,17.03
2023-02-13T20:26:20.443Z,16.90
2023-02-13T20:28:49.589Z,16.10
2023-02-13T20:31:19.431Z,18.07
2023-02-13T20:33:48.087Z,19.40
2023-02-13T20:36:17.855Z,17.93
2023-02-13T20:38:46.097Z,18.77
2023-02-13T20:41:16.163Z,18.10
2023-02-13T20:43:44.498Z,18.80
2023-02-13T20:46:15.879Z,19.07
2023-02-13T20:48:45.661Z,19.63
2023-02-13T20:51:15.597Z,19.03
2023-02-13T20:53:44.335Z,17.47
2023-02-13T20:56:13.745Z,18.53
2023-02-13T20:58:42.975Z,20.10
2023-02-13T21:01:16.576Z,19.60
2023-02-13T21:03:47.797Z,19.73
2023-02-13T21:06:15.702Z,19.73
2023-02-13T21:08:44.453Z,20.67
2023-02-13T21:11:12.374Z,20.73
2023-02-13T21:13:40.289Z,16.33
2023-02-13T21:16:10.259Z,15.60
2023-02-13T21:18:40.368Z,17.60
2023-02-13T21:21:09.781Z,18.00
2023-02-13T21:23:38.255Z,19.47
2023-02-13T21:26:08.037Z,19.27
2023-02-13T21:28:38.376Z,18.27
2023-02-13T21:31:07.400Z,18.40
2023-02-13T21:33:35.343Z,18.60
2023-02-13T21:36:07.404Z,18.20
2023-02-13T21:38:36.351Z,18.43
2023-02-13T21:41:07.999Z,17.27
2023-02-13T21:43:37.854Z,17.63
2023-02-13T21:46:08.386Z,18.03
2023-02-13T21:48:36.288Z,18.00
2023-02-13T21:51:08.231Z,17.83
2023-02-13T21:53:36.188Z,17.77
2023-02-13T21:56:04.606Z,21.43
2023-02-13T21:58:33.755Z,18.73
2023-02-13T22:01:02.299Z,18.70
2023-02-13T22:03:30.319Z,16.73
2023-02-13T22:05:58.134Z,17.97
2023-02-13T22:08:27.399Z,19.23
2023-02-13T22:10:56.941Z,18.33
2023-02-13T22:13:25.460Z,18.73
2023-02-13T22:16:00.712Z,18.73
2023-02-13T22:18:28.954Z,19.63
2023-02-13T22:20:57.004Z,17.50
2023-02-13T22:23:25.337Z,18.07
2023-02-13T22:25:54.493Z,17.63
2023-02-13T22:28:22.392Z,19.23
2023-02-13T22:30:50.271Z,18.17
2023-02-13T22:33:18.260Z,17.33
2023-02-13T22:35:46.656Z,18.10
2023-02-13T22:38:14.616Z,18.70
2023-02-13T22:40:42.512Z,17.73
2023-02-13T22:43:11.925Z,16.80
2023-02-13T22:45:39.948Z,16.20
2023-02-13T22:48:08.159Z,16.77
2023-02-13T22:50:36.321Z,17.80
2023-02-13T22:53:04.756Z,18.53
2023-02-13T22:55:33.574Z,18.03
2023-02-13T22:58:01.360Z,15.80
2023-02-13T23:00:30.635Z,16.23
2023-02-13T23:02:58.486Z,17.90
2023-02-13T23:05:26.341Z,17.83
2023-02-13T23:07:54.139Z,17.17
2023-02-13T23:10:25.749Z,16.47
2023-02-13T23:12:52.748Z,17.60
2023-02-13T23:15:21.024Z,17.80
2023-02-13T23:18:07.986Z,18.40
2023-02-13T23:20:35.932Z,17.70
2023-02-13T23:23:04.918Z,18.17
2023-02-13T23:25:32.982Z,18.13
2023-02-13T23:28:00.787Z,18.97
2023-02-13T23:30:30.038Z,18.67
2023-02-13T23:33:00.326Z,17.50
2023-02-13T23:35:28.594Z,17.20
2023-02-13T23:37:56.383Z,19.23
2023-02-13T23:40:24.297Z,17.27
2023-02-13T23:42:52.127Z,16.40
2023-02-13T23:45:20.317Z,18.53
2023-02-13T23:47:48.192Z,17.37
2023-02-13T23:50:17.614Z,17.57
2023-02-13T23:52:45.489Z,17.33
2023-02-13T23:55:13.407Z,17.60
2023-02-13T23:57:41.829Z,17.43
